sensor_id;sensor_type;location;lat;lon;timestamp;pressure;altitude;pressure_sealevel;temperature;humidity
9261;BME280;4667;42.726;23.252;2022-12-10T00:00:07;94580.28;;;10.85;nan
9261;BME280;4667;42.726;23.252;2022-12-10T00:02:34;94577.50;;;10.92;nan
9261;BME280;4667;42.726;23.252;2022-12-10T00:05:02;94575.16;;;10.94;nan
9261;BME280;4667;42.726;23.252;2022-12-10T00:07:28;94579.81;;;10.56;nan
9261;BME280;4667;42.726;23.252;2022-12-10T00:09:55;94558.09;;;10.97;nan
9261;BME280;4667;42.726;23.252;2022-12-10T00:12:22;94563.94;;;10.92;nan
9261;BME280;4667;42.726;23.252;2022-12-10T00:14:48;94577.44;;;10.99;nan
9261;BME280;4667;42.726;23.252;2022-12-10T00:17:15;94557.16;;;11.11;nan
9261;BME280;4667;42.726;23.252;2022-12-10T00:19:42;94569.63;;;10.68;nan
9261;BME280;4667;42.726;23.252;2022-12-10T00:22:10;94574.66;;;11.03;nan
9261;BME280;4667;42.726;23.252;2022-12-10T00:24:37;94564.16;;;10.75;nan
9261;BME280;4667;42.726;23.252;2022-12-10T00:27:03;94562.16;;;10.79;nan
9261;BME280;4667;42.726;23.252;2022-12-10T00:29:30;94553.03;;;10.99;nan
9261;BME280;4667;42.726;23.252;2022-12-10T00:31:57;94571.22;;;10.99;nan
9261;BME280;4667;42.726;23.252;2022-12-10T00:34:24;94565.28;;;11.11;nan
9261;BME280;4667;42.726;23.252;2022-12-10T00:36:51;94565.81;;;10.99;nan
9261;BME280;4667;42.726;23.252;2022-12-10T00:39:20;94561.94;;;11.00;nan
9261;BME280;4667;42.726;23.252;2022-12-10T00:41:47;94565.28;;;11.11;nan
9261;BME280;4667;42.726;23.252;2022-12-10T07:54:13;94492.31;;;12.24;100.00
9261;BME280;4667;42.726;23.252;2022-12-10T07:56:40;94484.53;;;12.46;100.00
9261;BME280;4667;42.726;23.252;2022-12-10T07:59:08;94475.09;;;12.74;100.00
9261;BME280;4667;42.726;23.252;2022-12-10T08:01:35;94479.19;;;13.01;100.00
9261;BME280;4667;42.726;23.252;2022-12-10T08:04:03;94468.13;;;12.92;100.00
9261;BME280;4667;42.726;23.252;2022-12-10T08:06:30;94453.94;;;13.21;100.00
9261;BME280;4667;42.726;23.252;2022-12-10T08:08:58;94466.41;;;13.18;100.00
9261;BME280;4667;42.726;23.252;2022-12-10T08:11:27;94464.59;;;13.12;100.00
9261;BME280;4667;42.726;23.252;2022-12-10T08:13:54;94445.56;;;13.47;100.00
9261;BME280;4667;42.726;23.252;2022-12-10T08:16:23;94451.25;;;13.37;100.00
9261;BME280;4667;42.726;23.252;2022-12-10T08:18:51;94445.28;;;13.26;100.00
9261;BME280;4667;42.726;23.252;2022-12-10T08:21:21;94456.34;;;13.35;100.00
9261;BME280;4667;42.726;23.252;2022-12-10T08:23:48;94447.59;;;13.27;100.00
9261;BME280;4667;42.726;23.252;2022-12-10T08:26:30;94448.88;;;13.39;100.00
9261;BME280;4667;42.726;23.252;2022-12-10T08:29:00;94446.78;;;13.46;100.00
9261;BME280;4667;42.726;23.252;2022-12-10T08:31:28;94448.47;;;13.57;100.00
9261;BME280;4667;42.726;23.252;2022-12-10T08:33:55;94440.72;;;13.55;100.00
9261;BME280;4667;42.726;23.252;2022-12-10T08:36:22;94439.88;;;13.58;100.00
9261;BME280;4667;42.726;23.252;2022-12-10T08:38:49;94445.31;;;13.58;100.00
9261;BME280;4667;42.726;23.252;2022-12-10T08:41:18;94447.88;;;13.81;100.00
9261;BME280;4667;42.726;23.252;2022-12-10T08:43:48;94456.53;;;13.93;100.00
9261;BME280;4667;42.726;23.252;2022-12-10T08:46:17;94466.75;;;14.05;100.00
9261;BME280;4667;42.726;23.252;2022-12-10T08:48:44;94445.94;;;14.27;100.00
9261;BME280;4667;42.726;23.252;2022-12-10T08:51:14;94445.09;;;14.14;100.00
9261;BME280;4667;42.726;23.252;2022-12-10T08:53:42;94432.13;;;14.34;100.00
9261;BME280;4667;42.726;23.252;2022-12-10T08:56:09;94435.22;;;14.20;100.00
9261;BME280;4667;42.726;23.252;2022-12-10T08:58:36;94426.00;;;14.46;100.00
9261;BME280;4667;42.726;23.252;2022-12-10T09:01:07;94417.25;;;14.80;100.00
9261;BME280;4667;42.726;23.252;2022-12-10T09:03:35;94420.25;;;15.11;100.00
9261;BME280;4667;42.726;23.252;2022-12-10T09:06:03;94408.25;;;15.46;100.00
9261;BME280;4667;42.726;23.252;2022-12-10T09:08:30;94400.84;;;15.60;100.00
9261;BME280;4667;42.726;23.252;2022-12-10T09:10:57;94404.59;;;14.86;100.00
9261;BME280;4667;42.726;23.252;2022-12-10T09:13:24;94407.63;;;14.63;100.00
9261;BME280;4667;42.726;23.252;2022-12-10T09:15:52;94409.84;;;14.39;100.00
9261;BME280;4667;42.726;23.252;2022-12-10T09:18:20;94412.72;;;15.15;100.00
9261;BME280;4667;42.726;23.252;2022-12-10T09:20:47;94404.44;;;15.57;100.00
9261;BME280;4667;42.726;23.252;2022-12-10T09:23:14;94402.75;;;15.84;100.00
9261;BME280;4667;42.726;23.252;2022-12-10T09:25:40;94395.41;;;15.94;100.00
9261;BME280;4667;42.726;23.252;2022-12-10T09:28:07;94386.88;;;15.92;100.00
9261;BME280;4667;42.726;23.252;2022-12-10T09:30:35;94376.72;;;16.27;100.00
9261;BME280;4667;42.726;23.252;2022-12-10T09:33:01;94379.63;;;16.67;100.00
9261;BME280;4667;42.726;23.252;2022-12-10T09:35:30;94375.41;;;16.75;100.00
9261;BME280;4667;42.726;23.252;2022-12-10T09:37:57;94375.47;;;16.62;100.00
9261;BME280;4667;42.726;23.252;2022-12-10T09:40:29;94363.69;;;16.53;100.00
9261;BME280;4667;42.726;23.252;2022-12-10T09:43:06;94367.19;;;16.75;100.00
9261;BME280;4667;42.726;23.252;2022-12-10T09:45:43;94363.41;;;17.03;100.00
9261;BME280;4667;42.726;23.252;2022-12-10T09:48:21;94346.19;;;17.34;100.00
9261;BME280;4667;42.726;23.252;2022-12-10T09:51:02;94343.47;;;17.52;100.00
9261;BME280;4667;42.726;23.252;2022-12-10T09:53:32;94332.19;;;17.99;100.00
9261;BME280;4667;42.726;23.252;2022-12-10T09:56:00;94327.91;;;18.25;100.00
9261;BME280;4667;42.726;23.252;2022-12-10T09:58:27;94332.75;;;18.49;100.00
9261;BME280;4667;42.726;23.252;2022-12-10T10:00:58;94329.56;;;18.68;100.00
9261;BME280;4667;42.726;23.252;2022-12-10T10:03:26;94330.16;;;18.72;100.00
9261;BME280;4667;42.726;23.252;2022-12-10T10:05:56;94333.53;;;19.09;100.00
9261;BME280;4667;42.726;23.252;2022-12-10T10:08:27;94331.94;;;18.85;100.00
9261;BME280;4667;42.726;23.252;2022-12-10T10:10:56;94320.25;;;19.17;nan
9261;BME280;4667;42.726;23.252;2022-12-10T10:13:30;94328.28;;;19.63;nan
9261;BME280;4667;42.726;23.252;2022-12-10T10:16:12;94321.00;;;19.60;nan
9261;BME280;4667;42.726;23.252;2022-12-10T10:18:46;94314.22;;;19.04;nan
9261;BME280;4667;42.726;23.252;2022-12-10T10:21:21;94311.50;;;19.28;nan
9261;BME280;4667;42.726;23.252;2022-12-10T10:23:48;94297.34;;;19.20;nan
9261;BME280;4667;42.726;23.252;2022-12-10T10:26:16;94294.56;;;18.96;nan
9261;BME280;4667;42.726;23.252;2022-12-10T10:28:43;94295.50;;;18.84;nan
9261;BME280;4667;42.726;23.252;2022-12-10T10:31:19;94294.22;;;18.70;nan
9261;BME280;4667;42.726;23.252;2022-12-10T10:33:48;94285.22;;;18.61;nan
9261;BME280;4667;42.726;23.252;2022-12-10T10:36:25;94275.94;;;18.58;nan
9261;BME280;4667;42.726;23.252;2022-12-10T10:38:54;94267.09;;;18.63;nan
9261;BME280;4667;42.726;23.252;2022-12-10T10:41:23;94260.03;;;18.11;nan
9261;BME280;4667;42.726;23.252;2022-12-10T10:43:58;94258.84;;;18.54;nan
9261;BME280;4667;42.726;23.252;2022-12-10T10:46:26;94271.38;;;18.64;nan
9261;BME280;4667;42.726;23.252;2022-12-10T10:49:13;94276.69;;;18.68;nan
9261;BME280;4667;42.726;23.252;2022-12-10T10:51:43;94274.38;;;18.66;nan
9261;BME280;4667;42.726;23.252;2022-12-10T10:54:11;94270.72;;;18.69;nan
9261;BME280;4667;42.726;23.252;2022-12-10T10:56:40;94265.00;;;18.91;nan
9261;BME280;4667;42.726;23.252;2022-12-10T10:59:26;94274.72;;;19.01;nan
9261;BME280;4667;42.726;23.252;2022-12-10T11:01:58;94265.50;;;19.13;nan
9261;BME280;4667;42.726;23.252;2022-12-10T11:04:29;94267.09;;;19.05;nan
9261;BME280;4667;42.726;23.252;2022-12-10T11:07:17;94242.91;;;19.18;nan
9261;BME280;4667;42.726;23.252;2022-12-10T11:09:45;94243.03;;;19.00;nan
9261;BME280;4667;42.726;23.252;2022-12-10T11:12:27;94226.06;;;19.02;nan
9261;BME280;4667;42.726;23.252;2022-12-10T11:14:55;94237.00;;;18.78;nan
9261;BME280;4667;42.726;23.252;2022-12-10T11:17:25;94209.06;;;18.56;nan
9261;BME280;4667;42.726;23.252;2022-12-10T11:19:56;94218.06;;;18.38;nan
9261;BME280;4667;42.726;23.252;2022-12-10T11:22:26;94212.28;;;18.36;nan
9261;BME280;4667;42.726;23.252;2022-12-10T11:24:54;94203.19;;;18.21;nan
9261;BME280;4667;42.726;23.252;2022-12-10T11:27:43;94202.38;;;18.39;nan
9261;BME280;4667;42.726;23.252;2022-12-10T11:30:18;94210.03;;;18.34;nan
9261;BME280;4667;42.726;23.252;2022-12-10T11:33:03;94201.84;;;18.67;nan
9261;BME280;4667;42.726;23.252;2022-12-10T11:35:45;94195.56;;;18.76;nan
9261;BME280;4667;42.726;23.252;2022-12-10T11:38:22;94208.84;;;18.68;nan
9261;BME280;4667;42.726;23.252;2022-12-10T11:41:02;94210.13;;;18.91;nan
9261;BME280;4667;42.726;23.252;2022-12-10T11:44:09;94202.22;;;18.84;nan
9261;BME280;4667;42.726;23.252;2022-12-10T11:46:56;94204.69;;;18.82;nan
9261;BME280;4667;42.726;23.252;2022-12-10T11:49:28;94200.94;;;18.70;nan
9261;BME280;4667;42.726;23.252;2022-12-10T11:52:05;94192.19;;;18.81;nan
9261;BME280;4667;42.726;23.252;2022-12-10T11:54:57;94177.78;;;18.95;nan
9261;BME280;4667;42.726;23.252;2022-12-10T11:57:34;94176.41;;;18.67;nan
9261;BME280;4667;42.726;23.252;2022-12-10T12:00:22;94183.53;;;18.73;nan
9261;BME280;4667;42.726;23.252;2022-12-10T12:03:02;94175.81;;;18.54;nan
9261;BME280;4667;42.726;23.252;2022-12-10T12:05:45;94173.38;;;18.14;nan
9261;BME280;4667;42.726;23.252;2022-12-10T12:08:20;94165.97;;;17.78;nan
9261;BME280;4667;42.726;23.252;2022-12-10T12:11:03;94167.47;;;17.97;nan
9261;BME280;4667;42.726;23.252;2022-12-10T12:13:37;94161.50;;;18.08;nan
9261;BME280;4667;42.726;23.252;2022-12-10T12:16:09;94139.03;;;17.76;nan
9261;BME280;4667;42.726;23.252;2022-12-10T12:18:43;94136.03;;;17.65;nan
9261;BME280;4667;42.726;23.252;2022-12-10T12:21:14;94135.84;;;17.78;nan
9261;BME280;4667;42.726;23.252;2022-12-10T12:23:47;94131.16;;;17.69;nan
9261;BME280;4667;42.726;23.252;2022-12-10T12:26:21;94127.63;;;17.60;nan
9261;BME280;4667;42.726;23.252;2022-12-10T12:28:53;94127.19;;;17.52;nan
9261;BME280;4667;42.726;23.252;2022-12-10T12:31:25;94117.16;;;17.40;nan
9261;BME280;4667;42.726;23.252;2022-12-10T12:34:00;94108.19;;;17.58;nan
9261;BME280;4667;42.726;23.252;2022-12-10T12:36:30;94093.72;;;17.48;nan
9261;BME280;4667;42.726;23.252;2022-12-10T12:39:03;94093.59;;;17.33;nan
9261;BME280;4667;42.726;23.252;2022-12-10T12:41:37;94094.66;;;17.18;nan
9261;BME280;4667;42.726;23.252;2022-12-10T12:44:12;94087.81;;;17.40;nan
9261;BME280;4667;42.726;23.252;2022-12-10T12:46:43;94088.56;;;17.41;nan
9261;BME280;4667;42.726;23.252;2022-12-10T12:49:18;94079.78;;;17.19;nan
9261;BME280;4667;42.726;23.252;2022-12-10T12:51:51;94090.47;;;16.58;nan
9261;BME280;4667;42.726;23.252;2022-12-10T12:54:23;94085.94;;;16.55;nan
9261;BME280;4667;42.726;23.252;2022-12-10T12:57:10;94098.88;;;16.64;nan
9261;BME280;4667;42.726;23.252;2022-12-10T12:59:52;94097.53;;;16.28;nan
9261;BME280;4667;42.726;23.252;2022-12-10T13:02:29;94085.31;;;16.51;nan
9261;BME280;4667;42.726;23.252;2022-12-10T13:05:03;94078.75;;;16.40;nan
9261;BME280;4667;42.726;23.252;2022-12-10T13:07:34;94086.31;;;16.26;nan
9261;BME280;4667;42.726;23.252;2022-12-10T13:10:17;94072.19;;;16.28;nan
9261;BME280;4667;42.726;23.252;2022-12-10T13:13:05;94080.88;;;16.36;nan
9261;BME280;4667;42.726;23.252;2022-12-10T13:15:35;94077.66;;;16.28;nan
9261;BME280;4667;42.726;23.252;2022-12-10T13:18:19;94084.69;;;15.98;nan
9261;BME280;4667;42.726;23.252;2022-12-10T13:20:47;94091.72;;;16.08;nan
9261;BME280;4667;42.726;23.252;2022-12-10T13:23:31;94071.41;;;16.27;nan
9261;BME280;4667;42.726;23.252;2022-12-10T13:26:01;94069.16;;;16.26;nan
9261;BME280;4667;42.726;23.252;2022-12-10T13:28:40;94052.41;;;16.06;nan
9261;BME280;4667;42.726;23.252;2022-12-10T13:31:32;94053.44;;;15.99;nan
9261;BME280;4667;42.726;23.252;2022-12-10T13:34:20;94049.22;;;16.07;nan
9261;BME280;4667;42.726;23.252;2022-12-10T13:37:16;94028.41;;;16.10;nan
9261;BME280;4667;42.726;23.252;2022-12-10T13:39:47;94014.94;;;16.15;nan
9261;BME280;4667;42.726;23.252;2022-12-10T13:42:27;94024.31;;;16.05;nan
9261;BME280;4667;42.726;23.252;2022-12-10T13:45:26;94030.44;;;16.18;nan
9261;BME280;4667;42.726;23.252;2022-12-10T13:48:26;94038.66;;;15.78;nan
9261;BME280;4667;42.726;23.252;2022-12-10T13:54:04;94024.00;;;16.03;nan
9261;BME280;4667;42.726;23.252;2022-12-10T13:56:40;94030.97;;;16.04;nan
9261;BME280;4667;42.726;23.252;2022-12-10T13:59:21;94017.75;;;15.84;nan
9261;BME280;4667;42.726;23.252;2022-12-10T14:01:58;94037.25;;;15.43;nan
9261;BME280;4667;42.726;23.252;2022-12-10T14:04:39;94037.84;;;15.47;nan
9261;BME280;4667;42.726;23.252;2022-12-10T14:07:13;94049.06;;;15.71;nan
9261;BME280;4667;42.726;23.252;2022-12-10T14:09:47;94029.19;;;15.70;nan
9261;BME280;4667;42.726;23.252;2022-12-10T14:12:16;94044.00;;;15.38;nan
9261;BME280;4667;42.726;23.252;2022-12-10T14:14:47;94033.69;;;14.90;nan
9261;BME280;4667;42.726;23.252;2022-12-10T14:17:20;94029.50;;;14.98;nan
9261;BME280;4667;42.726;23.252;2022-12-10T14:19:50;94018.22;;;15.30;nan
9261;BME280;4667;42.726;23.252;2022-12-10T14:22:30;94013.41;;;15.43;nan
9261;BME280;4667;42.726;23.252;2022-12-10T14:25:00;94011.78;;;15.46;nan
9261;BME280;4667;42.726;23.252;2022-12-10T14:27:27;94007.13;;;15.56;nan
9261;BME280;4667;42.726;23.252;2022-12-10T14:29:59;94020.47;;;15.32;nan
9261;BME280;4667;42.726;23.252;2022-12-10T14:32:38;94019.63;;;15.13;nan
9261;BME280;4667;42.726;23.252;2022-12-10T14:35:14;93993.56;;;15.12;nan
9261;BME280;4667;42.726;23.252;2022-12-10T14:37:44;93992.06;;;14.89;nan
9261;BME280;4667;42.726;23.252;2022-12-10T14:40:19;93975.09;;;15.16;nan
9261;BME280;4667;42.726;23.252;2022-12-10T14:42:50;93977.97;;;15.13;nan
9261;BME280;4667;42.726;23.252;2022-12-10T14:45:19;94010.19;;;14.83;nan
9261;BME280;4667;42.726;23.252;2022-12-10T14:47:53;93997.09;;;14.78;nan
9261;BME280;4667;42.726;23.252;2022-12-10T14:50:21;93977.13;;;15.03;nan
9261;BME280;4667;42.726;23.252;2022-12-10T14:52:51;93971.81;;;14.99;nan
9261;BME280;4667;42.726;23.252;2022-12-10T14:55:21;93984.88;;;14.83;nan
9261;BME280;4667;42.726;23.252;2022-12-10T14:57:52;93997.56;;;14.98;nan
9261;BME280;4667;42.726;23.252;2022-12-10T15:00:22;93999.72;;;14.82;nan
9261;BME280;4667;42.726;23.252;2022-12-10T15:02:54;93999.44;;;15.10;nan
9261;BME280;4667;42.726;23.252;2022-12-10T15:05:25;93990.25;;;15.17;nan
9261;BME280;4667;42.726;23.252;2022-12-10T15:07:58;93978.44;;;15.20;nan
9261;BME280;4667;42.726;23.252;2022-12-10T15:10:32;93983.09;;;15.10;nan
9261;BME280;4667;42.726;23.252;2022-12-10T15:13:01;93989.41;;;15.07;nan
9261;BME280;4667;42.726;23.252;2022-12-10T15:15:31;94006.94;;;15.19;nan
9261;BME280;4667;42.726;23.252;2022-12-10T15:18:08;93995.44;;;15.24;nan
9261;BME280;4667;42.726;23.252;2022-12-10T15:20:39;93988.50;;;15.32;nan
9261;BME280;4667;42.726;23.252;2022-12-10T15:23:19;93988.56;;;14.89;nan
9261;BME280;4667;42.726;23.252;2022-12-10T15:26:04;93980.88;;;14.96;nan
9261;BME280;4667;42.726;23.252;2022-12-10T15:28:36;93969.31;;;15.14;nan
9261;BME280;4667;42.726;23.252;2022-12-10T15:31:13;93973.41;;;14.88;nan
9261;BME280;4667;42.726;23.252;2022-12-10T15:33:50;93966.47;;;14.96;nan
9261;BME280;4667;42.726;23.252;2022-12-10T15:36:23;93967.59;;;15.07;nan
9261;BME280;4667;42.726;23.252;2022-12-10T15:38:53;93958.94;;;15.00;nan
9261;BME280;4667;42.726;23.252;2022-12-10T15:44:06;93969.84;;;14.78;nan
9261;BME280;4667;42.726;23.252;2022-12-10T15:46:46;93957.06;;;14.88;nan
9261;BME280;4667;42.726;23.252;2022-12-10T15:49:23;93965.16;;;14.79;nan
9261;BME280;4667;42.726;23.252;2022-12-10T15:51:55;93970.19;;;14.58;nan
9261;BME280;4667;42.726;23.252;2022-12-10T15:54:30;93967.00;;;14.60;nan
9261;BME280;4667;42.726;23.252;2022-12-10T15:57:12;93955.50;;;14.43;nan
9261;BME280;4667;42.726;23.252;2022-12-10T15:59:40;93960.47;;;14.23;nan
9261;BME280;4667;42.726;23.252;2022-12-10T16:02:24;93959.75;;;14.44;nan
9261;BME280;4667;42.726;23.252;2022-12-10T16:04:54;93958.75;;;14.16;nan
9261;BME280;4667;42.726;23.252;2022-12-10T16:07:21;93955.88;;;14.20;nan
9261;BME280;4667;42.726;23.252;2022-12-10T16:09:48;93946.53;;;14.21;nan
9261;BME280;4667;42.726;23.252;2022-12-10T16:12:16;93943.22;;;14.39;nan
9261;BME280;4667;42.726;23.252;2022-12-10T16:14:47;93932.88;;;14.34;nan
9261;BME280;4667;42.726;23.252;2022-12-10T16:17:38;93924.94;;;13.92;nan
9261;BME280;4667;42.726;23.252;2022-12-10T16:20:18;93934.66;;;14.15;nan
9261;BME280;4667;42.726;23.252;2022-12-10T16:22:45;93918.34;;;14.15;nan
9261;BME280;4667;42.726;23.252;2022-12-10T16:25:12;93925.00;;;13.67;nan
9261;BME280;4667;42.726;23.252;2022-12-10T16:27:39;93932.59;;;13.59;nan
9261;BME280;4667;42.726;23.252;2022-12-10T16:30:13;93914.63;;;13.87;nan
9261;BME280;4667;42.726;23.252;2022-12-10T16:32:41;93930.94;;;13.87;nan
9261;BME280;4667;42.726;23.252;2022-12-10T16:35:11;93942.09;;;13.55;nan
9261;BME280;4667;42.726;23.252;2022-12-10T16:37:41;93932.59;;;13.72;nan
9261;BME280;4667;42.726;23.252;2022-12-10T16:40:08;93935.88;;;13.67;nan
9261;BME280;4667;42.726;23.252;2022-12-10T16:42:35;93940.47;;;13.57;nan
9261;BME280;4667;42.726;23.252;2022-12-10T16:45:05;93941.25;;;13.45;nan
9261;BME280;4667;42.726;23.252;2022-12-10T16:47:36;93933.50;;;13.56;nan
9261;BME280;4667;42.726;23.252;2022-12-10T16:50:04;93927.16;;;13.08;nan
9261;BME280;4667;42.726;23.252;2022-12-10T16:52:32;93924.69;;;13.39;nan
9261;BME280;4667;42.726;23.252;2022-12-10T16:54:59;93923.94;;;13.52;nan
9261;BME280;4667;42.726;23.252;2022-12-10T16:57:27;93920.25;;;13.33;nan
9261;BME280;4667;42.726;23.252;2022-12-10T16:59:55;93931.88;;;13.46;nan
9261;BME280;4667;42.726;23.252;2022-12-10T17:02:22;93922.53;;;13.22;nan
9261;BME280;4667;42.726;23.252;2022-12-10T17:04:49;93912.16;;;13.42;nan
9261;BME280;4667;42.726;23.252;2022-12-10T17:07:16;93908.38;;;13.27;nan
9261;BME280;4667;42.726;23.252;2022-12-10T17:09:45;93892.16;;;13.36;nan
9261;BME280;4667;42.726;23.252;2022-12-10T17:12:12;93901.06;;;13.11;nan
9261;BME280;4667;42.726;23.252;2022-12-10T17:14:41;93888.59;;;13.14;nan
9261;BME280;4667;42.726;23.252;2022-12-10T17:17:12;93898.78;;;13.09;nan
9261;BME280;4667;42.726;23.252;2022-12-10T17:19:45;93887.59;;;13.07;nan
9261;BME280;4667;42.726;23.252;2022-12-10T17:22:12;93880.84;;;12.99;nan
9261;BME280;4667;42.726;23.252;2022-12-10T17:24:39;93888.84;;;12.65;nan
9261;BME280;4667;42.726;23.252;2022-12-10T17:27:11;93881.91;;;12.89;nan
9261;BME280;4667;42.726;23.252;2022-12-10T17:29:42;93872.03;;;12.95;nan
9261;BME280;4667;42.726;23.252;2022-12-10T17:32:13;93865.28;;;12.87;nan
9261;BME280;4667;42.726;23.252;2022-12-10T17:34:40;93870.19;;;12.92;nan
9261;BME280;4667;42.726;23.252;2022-12-10T17:37:10;93874.00;;;12.95;nan
9261;BME280;4667;42.726;23.252;2022-12-10T17:39:38;93863.25;;;12.91;nan
9261;BME280;4667;42.726;23.252;2022-12-10T17:42:04;93856.91;;;12.94;nan
9261;BME280;4667;42.726;23.252;2022-12-10T17:44:34;93866.28;;;12.68;nan
9261;BME280;4667;42.726;23.252;2022-12-10T17:47:01;93858.66;;;12.76;nan
9261;BME280;4667;42.726;23.252;2022-12-10T17:49:28;93860.41;;;12.82;nan
9261;BME280;4667;42.726;23.252;2022-12-10T17:51:57;93856.81;;;12.85;nan
9261;BME280;4667;42.726;23.252;2022-12-10T17:54:24;93871.47;;;12.88;nan
9261;BME280;4667;42.726;23.252;2022-12-10T17:56:52;93863.31;;;12.62;nan
9261;BME280;4667;42.726;23.252;2022-12-10T17:59:18;93857.16;;;12.75;nan
9261;BME280;4667;42.726;23.252;2022-12-10T18:01:46;93860.16;;;12.64;nan
9261;BME280;4667;42.726;23.252;2022-12-10T18:04:13;93854.72;;;12.64;nan
9261;BME280;4667;42.726;23.252;2022-12-10T18:06:40;93850.03;;;12.52;nan
9261;BME280;4667;42.726;23.252;2022-12-10T18:09:09;93837.22;;;12.52;nan
9261;BME280;4667;42.726;23.252;2022-12-10T18:11:37;93846.06;;;12.27;nan
9261;BME280;4667;42.726;23.252;2022-12-10T18:14:05;93832.31;;;12.47;nan
9261;BME280;4667;42.726;23.252;2022-12-10T18:16:33;93826.81;;;12.51;nan
9261;BME280;4667;42.726;23.252;2022-12-10T18:19:04;93828.78;;;12.63;nan
9261;BME280;4667;42.726;23.252;2022-12-10T18:21:33;93818.22;;;12.65;nan
9261;BME280;4667;42.726;23.252;2022-12-10T18:24:00;93833.97;;;12.83;nan
9261;BME280;4667;42.726;23.252;2022-12-10T18:26:27;93832.03;;;12.83;nan
9261;BME280;4667;42.726;23.252;2022-12-10T18:28:57;93828.13;;;12.84;nan
9261;BME280;4667;42.726;23.252;2022-12-10T18:31:26;93824.09;;;12.89;nan
9261;BME280;4667;42.726;23.252;2022-12-10T18:33:57;93825.06;;;12.95;nan
9261;BME280;4667;42.726;23.252;2022-12-10T18:36:30;93814.53;;;12.97;nan
9261;BME280;4667;42.726;23.252;2022-12-10T18:38:58;93803.53;;;13.00;nan
9261;BME280;4667;42.726;23.252;2022-12-10T18:41:25;93805.19;;;12.98;nan
9261;BME280;4667;42.726;23.252;2022-12-10T18:43:53;93798.88;;;12.76;nan
9261;BME280;4667;42.726;23.252;2022-12-10T18:46:21;93799.34;;;12.87;nan
9261;BME280;4667;42.726;23.252;2022-12-10T18:48:49;93792.69;;;12.75;nan
9261;BME280;4667;42.726;23.252;2022-12-10T18:51:16;93778.66;;;12.77;nan
9261;BME280;4667;42.726;23.252;2022-12-10T18:53:46;93776.84;;;12.61;nan
9261;BME280;4667;42.726;23.252;2022-12-10T18:56:19;93765.63;;;12.72;nan
9261;BME280;4667;42.726;23.252;2022-12-10T18:58:46;93785.63;;;12.65;nan
9261;BME280;4667;42.726;23.252;2022-12-10T19:01:15;93778.66;;;12.51;nan
9261;BME280;4667;42.726;23.252;2022-12-10T19:03:42;93779.50;;;12.23;nan
9261;BME280;4667;42.726;23.252;2022-12-10T19:06:12;93797.91;;;12.57;nan
9261;BME280;4667;42.726;23.252;2022-12-10T19:08:40;93763.59;;;12.63;nan
9261;BME280;4667;42.726;23.252;2022-12-10T19:11:08;93769.88;;;12.60;nan
9261;BME280;4667;42.726;23.252;2022-12-10T19:13:35;93772.16;;;12.49;nan
9261;BME280;4667;42.726;23.252;2022-12-10T19:16:02;93749.78;;;12.45;nan
9261;BME280;4667;42.726;23.252;2022-12-10T19:18:30;93753.56;;;12.60;nan
9261;BME280;4667;42.726;23.252;2022-12-10T19:20:57;93740.97;;;12.41;nan
9261;BME280;4667;42.726;23.252;2022-12-10T19:23:24;93735.31;;;12.35;nan
9261;BME280;4667;42.726;23.252;2022-12-10T19:25:51;93742.41;;;12.33;nan
9261;BME280;4667;42.726;23.252;2022-12-10T19:28:20;93733.59;;;12.54;nan
9261;BME280;4667;42.726;23.252;2022-12-10T19:30:47;93731.22;;;12.56;nan
9261;BME280;4667;42.726;23.252;2022-12-10T19:33:17;93737.81;;;12.17;nan
9261;BME280;4667;42.726;23.252;2022-12-10T19:35:45;93733.59;;;12.28;nan
9261;BME280;4667;42.726;23.252;2022-12-10T19:38:13;93730.53;;;12.52;nan
9261;BME280;4667;42.726;23.252;2022-12-10T19:40:41;93725.03;;;12.43;nan
9261;BME280;4667;42.726;23.252;2022-12-10T19:43:09;93723.47;;;12.67;nan
9261;BME280;4667;42.726;23.252;2022-12-10T19:45:39;93707.41;;;12.47;nan
9261;BME280;4667;42.726;23.252;2022-12-10T19:48:08;93705.09;;;12.71;nan
9261;BME280;4667;42.726;23.252;2022-12-10T19:50:35;93686.59;;;12.91;nan
9261;BME280;4667;42.726;23.252;2022-12-10T19:53:03;93694.75;;;12.91;nan
9261;BME280;4667;42.726;23.252;2022-12-10T19:55:31;93688.53;;;13.03;nan
9261;BME280;4667;42.726;23.252;2022-12-10T19:57:57;93676.88;;;13.03;nan
9261;BME280;4667;42.726;23.252;2022-12-10T20:00:27;93663.41;;;12.99;nan
9261;BME280;4667;42.726;23.252;2022-12-10T20:02:56;93662.88;;;13.04;nan
9261;BME280;4667;42.726;23.252;2022-12-10T20:05:24;93670.75;;;12.77;nan
9261;BME280;4667;42.726;23.252;2022-12-10T20:07:51;93629.44;;;12.82;nan
9261;BME280;4667;42.726;23.252;2022-12-10T20:10:20;93662.75;;;12.61;nan
9261;BME280;4667;42.726;23.252;2022-12-10T20:12:47;93636.00;;;12.72;nan
9261;BME280;4667;42.726;23.252;2022-12-10T20:15:14;93628.28;;;12.71;nan
9261;BME280;4667;42.726;23.252;2022-12-10T20:17:41;93628.25;;;12.83;nan
9261;BME280;4667;42.726;23.252;2022-12-10T20:20:16;93625.00;;;12.76;nan
9261;BME280;4667;42.726;23.252;2022-12-10T20:22:43;93633.41;;;12.68;nan
9261;BME280;4667;42.726;23.252;2022-12-10T20:25:11;93613.13;;;12.82;nan
9261;BME280;4667;42.726;23.252;2022-12-10T20:27:39;93623.38;;;12.78;nan
9261;BME280;4667;42.726;23.252;2022-12-10T20:30:14;93605.28;;;12.97;nan
9261;BME280;4667;42.726;23.252;2022-12-10T20:32:43;93596.97;;;13.00;nan
9261;BME280;4667;42.726;23.252;2022-12-10T20:35:13;93590.16;;;12.96;nan
9261;BME280;4667;42.726;23.252;2022-12-10T20:37:40;93592.63;;;13.03;nan
9261;BME280;4667;42.726;23.252;2022-12-10T20:40:13;93617.31;;;12.74;nan
9261;BME280;4667;42.726;23.252;2022-12-10T20:42:41;93584.66;;;12.52;nan
9261;BME280;4667;42.726;23.252;2022-12-10T20:45:08;93538.44;;;12.65;nan
9261;BME280;4667;42.726;23.252;2022-12-10T20:47:42;93556.88;;;12.48;nan
9261;BME280;4667;42.726;23.252;2022-12-10T20:50:13;93548.91;;;12.54;nan
9261;BME280;4667;42.726;23.252;2022-12-10T20:52:40;93516.06;;;12.39;nan
9261;BME280;4667;42.726;23.252;2022-12-10T20:55:07;93533.34;;;12.33;nan
9261;BME280;4667;42.726;23.252;2022-12-10T20:57:34;93533.94;;;12.49;nan
9261;BME280;4667;42.726;23.252;2022-12-10T21:00:02;93523.84;;;12.50;nan
9261;BME280;4667;42.726;23.252;2022-12-10T21:02:30;93531.44;;;12.55;nan
9261;BME280;4667;42.726;23.252;2022-12-10T21:04:56;93523.34;;;12.64;nan